Forside
METAR-TAF:

METAR-TAF

Lufthavne :

Evanston-Uinta County Airport (Burns Field)

Evanston, Wyoming, USA

Breddekreds: 41-16-23N, længdekreds: 111-01-50W, højde: 2183 m

Aktuelle vejr

Denne rapport blev lavet for 41 minutter siden, kl. 07:53 UTC
Vind 5 kt fra sydsydøst
Temperatur -3°C
Fugtighed 42%
Tryk 1023 hPa
Sigt: 16.1 km
skyfri

METAR: KEVW 220753Z AUTO 15005KT 10SM CLR M03/M14 A3020 RMK AO2 SLP260 T10331144

Tid: 01:34 (08:34 UTC)

Vejrudsigter

Denne rapport blev lavet for 2 timer og 59 minutter siden, kl. 05:35 UTC
Foreløbig gælder fra 22 på 06 UTC til 23 på 06 UTC
Vind 4 kt fra varierende retninger
Sigt: 10 km
Spredte skyer i en højde af 12000 ft

TAF: KEVW 220535Z 2206/2306 VRB04KT P6SM SCT120

Vejrobservationer og prognoser fra mere end 4000 lufthavne (METAR og TAF).

De gule og røde prikker repræsenterer de meteorologiske stationer.

Flyt musen over at se navnet på stationen.

Så klik over at se vejr observationer og prognoser.

At skifte det kort: Klik på de grønne knapper med et sort kors for at zoome ind; på den grønne knap med en bindestreg for at zoome ud; eller på de grønne pile for tilstødende kort.


METAR-TAF: